createdAt,value
2023-03-05T00:02:11.711Z,6.30
2023-03-05T00:04:38.523Z,6.20
2023-03-05T00:07:05.882Z,6.00
2023-03-05T00:09:34.321Z,6.00
2023-03-05T00:12:04.647Z,6.20
2023-03-05T00:14:31.385Z,6.50
2023-03-05T00:16:58.114Z,6.70
2023-03-05T00:19:24.846Z,6.40
2023-03-05T00:21:51.641Z,7.20
2023-03-05T00:24:18.960Z,6.40
2023-03-05T00:26:46.401Z,6.20
2023-03-05T00:29:18.327Z,5.80
2023-03-05T00:31:45.805Z,5.90
2023-03-05T00:34:15.402Z,6.00
2023-03-05T00:36:49.680Z,6.00
2023-03-05T00:39:18.137Z,6.10
2023-03-05T00:41:45.020Z,6.10
2023-03-05T00:44:12.219Z,5.80
2023-03-05T00:46:40.319Z,5.80
2023-03-05T00:49:07.313Z,6.60
2023-03-05T00:51:34.227Z,5.90
2023-03-05T00:54:01.114Z,6.20
2023-03-05T00:56:27.948Z,6.30
2023-03-05T00:58:56.478Z,6.50
2023-03-05T01:01:24.429Z,6.60
2023-03-05T01:03:51.580Z,6.60
2023-03-05T01:06:19.035Z,6.40
2023-03-05T01:08:45.771Z,6.30
2023-03-05T01:11:12.822Z,4.30
2023-03-05T01:13:39.888Z,6.00
2023-03-05T01:16:07.192Z,6.00
2023-03-05T01:18:34.272Z,5.70
2023-03-05T01:21:01.129Z,5.80
2023-03-05T01:23:27.881Z,5.70
2023-03-05T01:25:59.352Z,6.00
2023-03-05T01:28:27.097Z,6.00
2023-03-05T01:30:53.989Z,6.30
2023-03-05T01:33:21.046Z,6.10
2023-03-05T01:35:49.320Z,5.80
2023-03-05T01:38:16.622Z,5.70
2023-03-05T01:40:43.985Z,6.00
2023-03-05T01:43:13.586Z,5.60
2023-03-05T01:46:19.226Z,5.80
2023-03-05T01:48:50.316Z,5.70
2023-03-05T01:51:19.766Z,5.80
2023-03-05T01:53:47.409Z,6.20
2023-03-05T01:56:14.776Z,6.00
2023-03-05T01:58:41.916Z,5.70
2023-03-05T02:01:09.093Z,5.90
2023-03-05T02:03:38.080Z,6.20
2023-03-05T02:06:05.146Z,6.30
2023-03-05T02:08:33.728Z,6.40
2023-03-05T02:11:02.112Z,6.50
2023-03-05T02:13:35.391Z,6.70
2023-03-05T02:16:02.792Z,6.80
2023-03-05T02:18:29.681Z,6.90
2023-03-05T02:20:56.415Z,6.70
2023-03-05T02:23:29.922Z,6.80
2023-03-05T02:25:57.040Z,6.50
2023-03-05T02:28:32.203Z,6.40
2023-03-05T02:30:59.823Z,6.00
2023-03-05T02:33:26.788Z,6.10
2023-03-05T02:35:53.983Z,5.70
2023-03-05T02:38:21.969Z,5.30
2023-03-05T02:40:48.711Z,5.50
2023-03-05T02:43:15.507Z,5.20
2023-03-05T02:45:42.248Z,4.70
2023-03-05T02:48:09.083Z,5.50
2023-03-05T02:50:36.624Z,5.10
2023-03-05T02:53:03.518Z,5.10
2023-03-05T02:55:30.249Z,5.10
2023-03-05T02:57:57.031Z,6.00
2023-03-05T03:00:24.005Z,5.60
2023-03-05T03:02:50.941Z,5.40
2023-03-05T03:05:17.933Z,5.10
2023-03-05T03:07:44.875Z,5.40
2023-03-05T03:10:12.527Z,5.30
2023-03-05T03:12:44.744Z,5.40
2023-03-05T03:15:13.094Z,5.50
2023-03-05T03:17:40.120Z,6.00
2023-03-05T03:20:09.513Z,6.50
2023-03-05T03:22:36.470Z,5.70
2023-03-05T03:25:05.198Z,5.30
2023-03-05T03:27:33.255Z,4.70
2023-03-05T03:30:02.822Z,4.90
2023-03-05T03:32:29.864Z,4.80
2023-03-05T03:34:57.354Z,4.90
2023-03-05T03:37:24.397Z,4.80
2023-03-05T03:39:51.177Z,4.90
2023-03-05T03:42:19.690Z,5.10
2023-03-05T03:44:46.986Z,4.70
2023-03-05T03:47:13.942Z,4.80
2023-03-05T03:49:40.918Z,4.70
2023-03-05T03:52:07.894Z,5.00
2023-03-05T03:54:35.408Z,5.10
2023-03-05T03:57:02.411Z,5.10
2023-03-05T03:59:29.178Z,4.80
2023-03-05T04:01:55.866Z,5.00
2023-03-05T04:04:23.806Z,6.00
2023-03-05T04:06:50.595Z,5.00
2023-03-05T04:09:17.375Z,5.00
2023-03-05T04:11:44.183Z,5.30
2023-03-05T04:14:11.016Z,4.80
2023-03-05T04:16:37.866Z,4.70
2023-03-05T04:19:04.854Z,4.80
2023-03-05T04:21:31.646Z,4.70
2023-03-05T04:23:58.439Z,4.50
2023-03-05T04:26:26.388Z,4.60
2023-03-05T04:28:53.110Z,4.50
2023-03-05T04:31:20.681Z,4.60
2023-03-05T04:33:47.808Z,4.60
2023-03-05T04:36:14.591Z,4.80
2023-03-05T04:38:41.596Z,5.10
2023-03-05T04:41:08.295Z,5.90
2023-03-05T04:43:36.210Z,4.70
2023-03-05T04:46:03.157Z,4.80
2023-03-05T04:48:29.957Z,4.80
2023-03-05T04:50:57.925Z,4.90
2023-03-05T04:53:26.161Z,4.70
2023-03-05T04:55:56.673Z,4.80
2023-03-05T04:58:24.238Z,4.90
2023-03-05T05:00:52.581Z,4.90
2023-03-05T05:03:19.434Z,4.80
2023-03-05T05:05:46.189Z,5.10
2023-03-05T05:08:13.136Z,5.10
2023-03-05T05:10:40.221Z,5.20
2023-03-05T05:13:07.113Z,5.40
2023-03-05T05:15:34.028Z,5.60
2023-03-05T05:18:00.819Z,5.50
2023-03-05T05:20:27.690Z,5.40
2023-03-05T05:22:54.434Z,5.60
2023-03-05T05:25:22.570Z,5.50
2023-03-05T05:27:49.304Z,5.30
2023-03-05T05:30:16.370Z,5.10
2023-03-05T05:32:43.217Z,5.30
2023-03-05T05:35:10.866Z,5.30
2023-03-05T05:37:37.627Z,5.50
2023-03-05T05:40:05.754Z,5.90
2023-03-05T05:42:32.546Z,5.90
2023-03-05T05:45:02.956Z,5.60
2023-03-05T05:47:30.866Z,5.20
2023-03-05T05:49:57.677Z,5.60
2023-03-05T05:52:24.634Z,4.90
2023-03-05T05:54:51.583Z,4.70
2023-03-05T05:57:18.340Z,5.50
2023-03-05T05:59:45.094Z,5.20
2023-03-05T06:02:11.932Z,4.90
2023-03-05T06:04:40.007Z,4.70
2023-03-05T06:07:07.158Z,5.00
2023-03-05T06:09:36.302Z,5.00
2023-03-05T06:12:03.515Z,4.80
2023-03-05T06:14:30.294Z,4.60
2023-03-05T06:16:57.167Z,4.60
2023-03-05T06:19:23.946Z,4.70
2023-03-05T06:21:50.820Z,4.70
2023-03-05T06:24:19.358Z,4.80
2023-03-05T06:26:46.820Z,4.80
2023-03-05T06:29:13.966Z,5.20
2023-03-05T06:31:41.933Z,5.00
2023-03-05T06:34:08.681Z,5.00
2023-03-05T06:36:35.436Z,5.20
2023-03-05T06:39:03.656Z,5.00
2023-03-05T06:41:31.893Z,4.80
2023-03-05T06:44:04.839Z,4.70
2023-03-05T06:46:34.450Z,5.00
2023-03-05T06:49:04.170Z,5.00
2023-03-05T06:51:33.916Z,4.80
2023-03-05T06:54:06.232Z,5.50
2023-03-05T06:56:35.320Z,4.70
2023-03-05T06:59:02.122Z,5.80
2023-03-05T07:01:29.087Z,4.90
2023-03-05T07:03:58.909Z,4.70
2023-03-05T07:06:27.437Z,5.10
2023-03-05T07:08:58.822Z,5.90
2023-03-05T07:11:25.906Z,5.30
2023-03-05T07:13:52.946Z,5.40
2023-03-05T07:16:26.173Z,5.30
2023-03-05T07:18:53.930Z,5.30
2023-03-05T07:21:28.840Z,5.50
2023-03-05T07:23:57.229Z,5.40
2023-03-05T07:26:24.600Z,5.30
2023-03-05T07:28:51.854Z,5.50
2023-03-05T07:31:21.364Z,5.30
2023-03-05T07:33:51.260Z,5.50
2023-03-05T07:36:18.652Z,5.40
2023-03-05T07:38:45.732Z,5.30
2023-03-05T07:41:20.109Z,5.50
2023-03-05T07:43:49.240Z,5.90
2023-03-05T07:46:18.116Z,5.50
2023-03-05T07:48:45.013Z,5.10
2023-03-05T07:51:15.888Z,5.10
2023-03-05T07:53:47.364Z,5.20
2023-03-05T07:56:14.625Z,5.50
2023-03-05T07:58:41.372Z,5.00
2023-03-05T08:01:14.158Z,4.70
2023-03-05T08:03:42.202Z,5.20
2023-03-05T08:06:10.235Z,5.00
2023-03-05T08:08:37.531Z,5.00
2023-03-05T08:11:12.741Z,4.80
2023-03-05T08:13:43.806Z,5.00
2023-03-05T08:16:17.053Z,4.90
2023-03-05T08:18:44.357Z,5.20
2023-03-05T08:21:23.439Z,5.50
2023-03-05T08:23:50.303Z,5.40
2023-03-05T08:26:21.180Z,5.70
2023-03-05T08:28:48.272Z,5.50
2023-03-05T08:31:17.199Z,5.80
2023-03-05T08:33:44.201Z,5.90
2023-03-05T08:36:11.271Z,5.20
2023-03-05T08:38:38.015Z,5.20
2023-03-05T08:41:05.818Z,5.00
2023-03-05T08:43:33.225Z,5.10
2023-03-05T08:46:01.653Z,5.10
2023-03-05T08:48:31.798Z,5.20
2023-03-05T08:51:04.954Z,6.10
2023-03-05T08:53:31.724Z,4.80
2023-03-05T08:55:58.891Z,5.40
2023-03-05T08:58:26.308Z,5.20
2023-03-05T09:00:53.207Z,4.70
2023-03-05T09:03:20.226Z,4.60
2023-03-05T09:05:48.610Z,4.30
2023-03-05T09:08:15.863Z,4.70
2023-03-05T09:10:43.589Z,5.10
2023-03-05T09:13:10.997Z,5.30
2023-03-05T09:15:38.326Z,4.90
2023-03-05T09:18:05.518Z,5.30
2023-03-05T09:20:33.270Z,5.40
2023-03-05T09:23:00.113Z,5.40
2023-03-05T09:25:27.133Z,5.20
2023-03-05T09:27:53.949Z,5.20
2023-03-05T09:30:21.131Z,5.50
2023-03-05T09:32:47.882Z,5.20
2023-03-05T09:35:14.737Z,5.20
2023-03-05T09:37:41.649Z,5.20
2023-03-05T09:40:12.347Z,5.30
2023-03-05T09:42:54.709Z,5.40
2023-03-05T09:46:06.210Z,5.50
2023-03-05T09:48:41.834Z,5.40
2023-03-05T09:51:34.646Z,6.00
2023-03-05T09:54:44.890Z,6.10
2023-03-05T09:57:20.641Z,6.40
2023-03-05T10:00:01.125Z,6.00
2023-03-05T10:02:36.152Z,6.20
2023-03-05T10:05:26.104Z,6.20
2023-03-05T10:08:00.278Z,6.00
2023-03-05T10:10:32.963Z,6.30
2023-03-05T10:13:05.514Z,6.40
2023-03-05T10:16:03.344Z,6.40
2023-03-05T10:18:53.857Z,6.50
2023-03-05T10:21:46.085Z,6.50
2023-03-05T10:24:54.712Z,6.30
2023-03-05T10:27:40.580Z,6.10
2023-03-05T10:30:48.816Z,6.60
2023-03-05T10:33:53.849Z,6.40
2023-03-05T10:36:26.816Z,6.50
2023-03-05T10:38:54.787Z,6.80
2023-03-05T10:41:39.782Z,6.90
2023-03-05T10:44:19.125Z,6.80
2023-03-05T10:46:47.988Z,6.80
2023-03-05T10:49:26.643Z,7.00
2023-03-05T10:52:11.919Z,6.80
2023-03-05T10:54:41.834Z,6.80
2023-03-05T10:57:24.990Z,6.70
2023-03-05T11:00:01.169Z,6.80
2023-03-05T11:02:28.050Z,7.00
2023-03-05T11:05:05.212Z,7.30
2023-03-05T11:07:34.393Z,7.70
2023-03-05T11:10:02.038Z,8.20
2023-03-05T11:12:37.748Z,7.40
2023-03-05T11:15:04.700Z,7.50
2023-03-05T11:17:31.841Z,7.60
2023-03-05T11:20:27.697Z,7.90
2023-03-05T11:23:25.018Z,8.40
2023-03-05T11:26:12.652Z,8.10
2023-03-05T11:28:55.377Z,8.00
2023-03-05T11:31:28.368Z,8.10
2023-03-05T11:34:01.630Z,7.30
2023-03-05T11:36:37.187Z,7.50
2023-03-05T11:39:07.429Z,7.80
2023-03-05T11:41:48.516Z,8.00
2023-03-05T11:44:22.259Z,8.60
2023-03-05T11:46:55.768Z,8.30
2023-03-05T11:49:27.703Z,7.90
2023-03-05T11:52:26.027Z,7.60
2023-03-05T11:55:01.380Z,7.60
2023-03-05T11:57:38.207Z,7.90
2023-03-05T12:00:11.765Z,8.50
2023-03-05T12:02:38.960Z,8.00
2023-03-05T12:05:07.614Z,8.10
2023-03-05T12:07:46.550Z,8.10
2023-03-05T12:10:23.733Z,8.60
2023-03-05T12:13:20.104Z,8.60
2023-03-05T12:15:50.165Z,8.20
2023-03-05T12:18:50.970Z,8.00
2023-03-05T12:21:37.631Z,8.00
2023-03-05T12:24:28.669Z,7.90
2023-03-05T12:27:04.140Z,8.30
2023-03-05T12:29:43.922Z,8.70
2023-03-05T12:32:23.145Z,8.00
2023-03-05T12:34:56.525Z,8.10
2023-03-05T12:37:26.035Z,7.90
2023-03-05T12:40:17.881Z,7.90
2023-03-05T12:42:55.823Z,8.40
2023-03-05T12:45:24.323Z,8.30
2023-03-05T12:47:57.165Z,8.70
2023-03-05T12:50:27.093Z,8.90
2023-03-05T12:52:55.403Z,9.10
2023-03-05T12:55:33.555Z,9.10
2023-03-05T12:58:07.200Z,9.10
2023-03-05T13:00:44.797Z,8.20
2023-03-05T13:03:26.920Z,9.40
2023-03-05T13:05:56.321Z,8.90
2023-03-05T13:08:35.998Z,9.00
2023-03-05T13:11:06.218Z,9.00
2023-03-05T13:13:42.344Z,9.00
2023-03-05T13:16:29.136Z,9.20
2023-03-05T13:18:59.308Z,9.20
2023-03-05T13:21:29.720Z,9.80
2023-03-05T13:24:01.063Z,9.30
2023-03-05T13:26:38.118Z,8.40
2023-03-05T13:29:20.062Z,8.10
2023-03-05T13:31:49.450Z,7.70
2023-03-05T13:34:18.948Z,7.70
2023-03-05T13:36:51.219Z,7.90
2023-03-05T13:39:25.968Z,7.80
2023-03-05T13:41:59.178Z,7.90
2023-03-05T13:44:26.551Z,7.60
2023-03-05T13:46:53.257Z,7.60
2023-03-05T13:49:24.722Z,7.30
2023-03-05T13:51:55.297Z,7.30
2023-03-05T13:54:25.213Z,7.80
2023-03-05T13:56:54.959Z,7.60
2023-03-05T13:59:24.346Z,7.70
2023-03-05T14:01:52.736Z,7.70
2023-03-05T14:04:28.824Z,7.60
2023-03-05T14:07:51.109Z,7.20
2023-03-05T14:10:42.113Z,6.90
2023-03-05T14:13:17.963Z,7.20
2023-03-05T14:16:11.717Z,6.80
2023-03-05T14:18:53.546Z,7.00
2023-03-05T14:21:20.444Z,6.90
2023-03-05T14:23:49.371Z,6.80
2023-03-05T14:26:35.246Z,6.90
2023-03-05T14:29:03.400Z,6.60
2023-03-05T14:31:36.757Z,6.80
2023-03-05T14:34:07.305Z,6.70
2023-03-05T14:36:34.682Z,6.70
2023-03-05T14:39:02.107Z,6.40
2023-03-05T14:41:39.893Z,6.40
2023-03-05T14:44:20.486Z,6.00
2023-03-05T14:46:50.278Z,6.50
2023-03-05T14:49:17.990Z,6.40
2023-03-05T14:51:46.691Z,6.30
2023-03-05T14:54:23.589Z,6.20
2023-03-05T14:56:50.866Z,6.30
2023-03-05T14:59:20.979Z,6.30
2023-03-05T15:01:50.019Z,6.10
2023-03-05T15:04:19.261Z,6.30
2023-03-05T15:06:50.719Z,6.20
2023-03-05T15:09:19.719Z,6.20
2023-03-05T15:11:46.974Z,6.00
2023-03-05T15:14:13.702Z,5.90
2023-03-05T15:16:43.190Z,6.10
2023-03-05T15:19:12.960Z,6.50
2023-03-05T15:21:39.952Z,6.40
2023-03-05T15:24:07.042Z,6.70
2023-03-05T15:26:33.837Z,6.60
2023-03-05T15:29:00.690Z,6.90
2023-03-05T15:31:28.674Z,6.80
2023-03-05T15:33:55.538Z,7.10
2023-03-05T15:36:22.266Z,6.90
2023-03-05T15:38:49.138Z,7.00
2023-03-05T15:41:16.601Z,6.10
2023-03-05T15:43:43.413Z,6.70
2023-03-05T15:46:10.303Z,6.20
2023-03-05T15:48:37.165Z,6.60
2023-03-05T15:51:07.359Z,6.50
2023-03-05T15:53:34.172Z,6.30
2023-03-05T15:56:00.895Z,6.50
2023-03-05T15:58:27.718Z,6.60
2023-03-05T16:00:54.660Z,6.50
2023-03-05T16:03:23.083Z,6.50
2023-03-05T16:05:49.895Z,8.80
2023-03-05T16:08:16.719Z,7.30
2023-03-05T16:10:43.876Z,6.90
2023-03-05T16:13:16.183Z,6.90
2023-03-05T16:15:43.891Z,7.10
2023-03-05T16:18:14.295Z,6.70
2023-03-05T16:20:41.088Z,6.60
2023-03-05T16:23:07.903Z,6.80
2023-03-05T16:25:34.780Z,6.80
2023-03-05T16:28:01.813Z,6.40
2023-03-05T16:30:28.867Z,6.30
2023-03-05T16:32:55.825Z,6.30
2023-03-05T16:35:22.811Z,6.30
2023-03-05T16:37:49.820Z,6.30
2023-03-05T16:40:16.856Z,5.90
2023-03-05T16:42:43.679Z,6.00
2023-03-05T16:45:11.890Z,6.40
2023-03-05T16:47:39.779Z,6.70
2023-03-05T16:50:09.040Z,6.60
2023-03-05T16:52:36.570Z,6.50
2023-03-05T16:55:05.095Z,6.70
2023-03-05T16:57:31.924Z,6.70
2023-03-05T17:00:02.709Z,6.90
2023-03-05T17:02:29.569Z,7.00
2023-03-05T17:04:58.148Z,6.60
2023-03-05T17:07:26.476Z,6.40
2023-03-05T17:09:54.020Z,6.80
2023-03-05T17:12:23.530Z,6.70
2023-03-05T17:14:50.336Z,6.60
2023-03-05T17:17:17.263Z,6.50
2023-03-05T17:19:47.276Z,6.40
2023-03-05T17:22:16.072Z,6.50
2023-03-05T17:24:42.989Z,6.60
2023-03-05T17:27:10.377Z,6.40
2023-03-05T17:29:37.402Z,6.40
2023-03-05T17:32:04.669Z,6.30
2023-03-05T17:34:36.714Z,6.50
2023-03-05T17:37:05.018Z,6.10
2023-03-05T17:39:31.855Z,6.20
2023-03-05T17:41:58.701Z,7.10
2023-03-05T17:44:25.559Z,6.10
2023-03-05T17:46:52.629Z,6.10
2023-03-05T17:49:19.676Z,5.90
2023-03-05T17:51:46.498Z,6.00
2023-03-05T17:54:13.456Z,5.90
2023-03-05T17:56:40.393Z,5.90
2023-03-05T17:59:07.410Z,6.00
2023-03-05T18:01:34.987Z,6.10
2023-03-05T18:04:02.044Z,6.10
2023-03-05T18:06:29.331Z,6.20
2023-03-05T18:08:56.199Z,6.30
2023-03-05T18:11:23.312Z,6.50
2023-03-05T18:13:50.830Z,6.20
2023-03-05T18:16:18.500Z,6.30
2023-03-05T18:18:46.064Z,6.50
2023-03-05T18:21:12.958Z,6.30
2023-03-05T18:23:40.197Z,6.40
2023-03-05T18:26:06.954Z,6.60
2023-03-05T18:28:33.738Z,6.30
2023-03-05T18:31:01.771Z,6.50
2023-03-05T18:33:28.674Z,6.70
2023-03-05T18:35:57.776Z,6.70
2023-03-05T18:38:27.196Z,6.60
2023-03-05T18:40:56.511Z,6.80
2023-03-05T18:43:24.741Z,6.80
2023-03-05T18:45:53.740Z,7.00
2023-03-05T18:48:21.285Z,6.00
2023-03-05T18:50:54.348Z,7.20
2023-03-05T18:53:22.441Z,7.20
2023-03-05T18:55:51.293Z,7.10
2023-03-05T18:58:18.391Z,7.50
2023-03-05T19:00:47.133Z,7.50
2023-03-05T19:03:16.115Z,7.50
2023-03-05T19:05:43.165Z,7.60
2023-03-05T19:08:13.172Z,7.50
2023-03-05T19:10:40.121Z,7.60
2023-03-05T19:13:35.708Z,7.60
2023-03-05T19:16:15.171Z,7.60
2023-03-05T19:18:57.229Z,7.50
2023-03-05T19:21:24.807Z,7.40
2023-03-05T19:23:51.697Z,7.40
2023-03-05T19:26:18.588Z,7.40
2023-03-05T19:28:47.928Z,7.50
2023-03-05T19:31:15.802Z,7.30
2023-03-05T19:33:42.783Z,7.20
2023-03-05T19:36:11.323Z,7.20
2023-03-05T19:38:38.602Z,7.30
2023-03-05T19:41:06.421Z,7.10
2023-03-05T19:43:33.218Z,7.20
2023-03-05T19:46:04.379Z,7.10
2023-03-05T19:48:32.696Z,7.10
2023-03-05T19:50:59.569Z,7.10
2023-03-05T19:53:26.419Z,6.90
2023-03-05T19:55:54.691Z,6.80
2023-03-05T19:58:21.713Z,6.80
2023-03-05T20:00:48.508Z,7.00
2023-03-05T20:03:15.292Z,7.40
2023-03-05T20:05:43.674Z,7.10
2023-03-05T20:08:10.685Z,7.10
2023-03-05T20:10:37.402Z,7.00
2023-03-05T20:13:11.479Z,6.90
2023-03-05T20:15:50.572Z,7.00
2023-03-05T20:18:17.719Z,7.00
2023-03-05T20:20:44.794Z,6.90
2023-03-05T20:23:11.624Z,6.80
2023-03-05T20:25:39.041Z,6.70
2023-03-05T20:28:05.781Z,6.70
2023-03-05T20:30:32.503Z,6.70
2023-03-05T20:32:59.627Z,6.70
2023-03-05T20:35:26.562Z,6.60
2023-03-05T20:38:15.439Z,6.40
2023-03-05T20:40:42.194Z,6.20
2023-03-05T20:43:09.007Z,6.10
2023-03-05T20:45:36.193Z,6.20
2023-03-05T20:48:02.949Z,6.00
2023-03-05T20:50:29.884Z,6.00
2023-03-05T20:52:57.546Z,6.00
2023-03-05T20:55:27.665Z,6.20
2023-03-05T20:57:56.029Z,6.10
2023-03-05T21:00:23.894Z,6.20
2023-03-05T21:02:51.938Z,6.30
2023-03-05T21:05:20.189Z,6.70
2023-03-05T21:07:46.971Z,6.70
2023-03-05T21:10:16.520Z,6.90
2023-03-05T21:12:44.154Z,6.80
2023-03-05T21:15:13.438Z,6.40
2023-03-05T21:17:41.757Z,6.20
2023-03-05T21:20:09.998Z,6.20
2023-03-05T21:22:36.949Z,6.10
2023-03-05T21:25:24.884Z,6.00
2023-03-05T21:28:15.586Z,6.00
2023-03-05T21:30:45.127Z,5.70
2023-03-05T21:33:24.469Z,5.80
2023-03-05T21:35:52.773Z,5.70
2023-03-05T21:38:24.450Z,5.90
2023-03-05T21:40:53.754Z,5.00
2023-03-05T21:43:23.105Z,5.70
2023-03-05T21:45:54.583Z,5.40
2023-03-05T21:48:22.599Z,5.50
2023-03-05T21:50:50.193Z,5.70
2023-03-05T21:53:19.415Z,5.60
2023-03-05T21:56:21.074Z,5.70
2023-03-05T21:58:49.101Z,5.90
2023-03-05T22:01:18.554Z,5.60
2023-03-05T22:03:46.162Z,5.70
2023-03-05T22:06:15.324Z,6.00
2023-03-05T22:08:42.732Z,5.80
2023-03-05T22:11:11.089Z,5.80
2023-03-05T22:13:38.964Z,5.80
2023-03-05T22:16:06.248Z,5.80
2023-03-05T22:18:33.960Z,5.80
2023-03-05T22:21:02.430Z,5.80
2023-03-05T22:23:31.516Z,5.90
2023-03-05T22:26:02.403Z,6.10
2023-03-05T22:28:30.055Z,6.10
2023-03-05T22:30:57.374Z,6.20
2023-03-05T22:33:24.486Z,6.20
2023-03-05T22:35:53.997Z,6.30
2023-03-05T22:38:21.066Z,6.20
2023-03-05T22:40:49.799Z,6.10
2023-03-05T22:43:18.200Z,6.10
2023-03-05T22:45:45.168Z,6.30
2023-03-05T22:48:12.296Z,6.20
2023-03-05T22:50:40.309Z,6.20
2023-03-05T22:53:07.173Z,6.40
2023-03-05T22:55:33.958Z,6.40
2023-03-05T22:58:00.696Z,6.40
2023-03-05T23:00:30.045Z,6.40
2023-03-05T23:02:56.915Z,6.60
2023-03-05T23:05:23.729Z,6.50
2023-03-05T23:07:50.516Z,6.40
2023-03-05T23:10:20.093Z,6.30
2023-03-05T23:12:50.887Z,6.10
2023-03-05T23:15:23.381Z,6.20
2023-03-05T23:17:50.246Z,6.20
2023-03-05T23:20:20.974Z,6.10
2023-03-05T23:22:48.507Z,6.10
2023-03-05T23:25:16.502Z,6.10
2023-03-05T23:27:43.811Z,6.00
2023-03-05T23:30:16.717Z,6.30
2023-03-05T23:32:45.868Z,6.20
2023-03-05T23:35:14.750Z,6.20
2023-03-05T23:37:42.117Z,6.20
2023-03-05T23:40:15.021Z,6.20
2023-03-05T23:42:42.600Z,6.10
2023-03-05T23:45:11.728Z,6.20
2023-03-05T23:47:38.989Z,6.30
2023-03-05T23:50:08.091Z,6.30
2023-03-05T23:52:35.236Z,6.30
2023-03-05T23:55:01.948Z,6.40
2023-03-05T23:57:28.941Z,6.30
2023-03-05T23:59:55.686Z,6.40
